Aviation Digital Data Service (ADDS)

Output produced by METARs form (1745 UTC 25 March 2019)
found at http://www.aviationweather.gov/metar/data/
 
METAR text: OPMT 251730Z 00000KT 4000 FU NSC 23/15 Q1014 NOSIG
Conditions at: OPMT (MULTAN , PK) observed 1730 UTC 25 March 2019
Temperature: 23.0°C (73°F)
Dewpoint: 15.0°C (59°F) [RH = 61%]
Pressure (altimeter): 29.94 inches Hg (1014.0 mb)
Winds: calm
Visibility: 2.49 miles (4.01 km)
Ceiling: at least 12,000 feet AGL
Clouds: sky clear below 12,000 feet AGL
Weather: FU  (smoke)

METAR text: OPMT 251700Z 00000KT 5000 FU FEW120 24/13 Q1013 NOSIG
Conditions at: OPMT (MULTAN , PK) observed 1700 UTC 25 March 2019
Temperature: 24.0°C (75°F)
Dewpoint: 13.0°C (55°F) [RH = 50%]
Pressure (altimeter): 29.91 inches Hg (1013.0 mb)
Winds: calm
Visibility: 3 miles ( 5 km)
Ceiling: at least 12,000 feet AGL
Clouds: few clouds at 12000 feet AGL
Weather: FU  (smoke)

METAR text: OPMT 251630Z 00000KT 5000 FU FEW120 24/13 Q1013 NOSIG
Conditions at: OPMT (MULTAN , PK) observed 1630 UTC 25 March 2019
Temperature: 24.0°C (75°F)
Dewpoint: 13.0°C (55°F) [RH = 50%]
Pressure (altimeter): 29.91 inches Hg (1013.0 mb)
Winds: calm
Visibility: 3 miles ( 5 km)
Ceiling: at least 12,000 feet AGL
Clouds: few clouds at 12000 feet AGL
Weather: FU  (smoke)

METAR text: OPMT 251600Z 00000KT 5000 FU SCT120 25/14 Q1013 NOSIG
Conditions at: OPMT (MULTAN , PK) observed 1600 UTC 25 March 2019
Temperature: 25.0°C (77°F)
Dewpoint: 14.0°C (57°F) [RH = 50%]
Pressure (altimeter): 29.91 inches Hg (1013.0 mb)
Winds: calm
Visibility: 3 miles ( 5 km)
Ceiling: at least 12,000 feet AGL
Clouds: scattered clouds at 12000 feet AGL
Weather: FU  (smoke)

METAR text: OPMT 251530Z 31004KT 5000 HZ SCT120 25/13 Q1013 NOSIG
Conditions at: OPMT (MULTAN , PK) observed 1530 UTC 25 March 2019
Temperature: 25.0°C (77°F)
Dewpoint: 13.0°C (55°F) [RH = 47%]
Pressure (altimeter): 29.91 inches Hg (1013.0 mb)
Winds: from the NW (310 degrees) at 5 MPH (4 knots; 2.1 m/s)
Visibility: 3 miles ( 5 km)
Ceiling: at least 12,000 feet AGL
Clouds: scattered clouds at 12000 feet AGL
Weather: HZ  (haze)

METAR text: OPMT 251455Z 31004KT 5000 HZ FEW040 26/13 Q1012 NOSIG
Conditions at: OPMT (MULTAN , PK) observed 1455 UTC 25 March 2019
Temperature: 26.0°C (79°F)
Dewpoint: 13.0°C (55°F) [RH = 45%]
Pressure (altimeter): 29.88 inches Hg (1012.0 mb)
Winds: from the NW (310 degrees) at 5 MPH (4 knots; 2.1 m/s)
Visibility: 3 miles ( 5 km)
Ceiling: at least 12,000 feet AGL
Clouds: few clouds at 4000 feet AGL
Weather: HZ  (haze)

METAR text: OPMT 251430Z 00000KT 5000 HZ FEW040 27/12 Q1012 NOSIG
Conditions at: OPMT (MULTAN , PK) observed 1430 UTC 25 March 2019
Temperature: 27.0°C (81°F)
Dewpoint: 12.0°C (54°F) [RH = 39%]
Pressure (altimeter): 29.88 inches Hg (1012.0 mb)
Winds: calm
Visibility: 3 miles ( 5 km)
Ceiling: at least 12,000 feet AGL
Clouds: few clouds at 4000 feet AGL
Weather: HZ  (haze)

METAR text: OPMT 251400Z 00000KT 5000 HZ FEW040 27/11 Q1012 NOSIG
Conditions at: OPMT (MULTAN , PK) observed 1400 UTC 25 March 2019
Temperature: 27.0°C (81°F)
Dewpoint: 11.0°C (52°F) [RH = 37%]
Pressure (altimeter): 29.88 inches Hg (1012.0 mb)
Winds: calm
Visibility: 3 miles ( 5 km)
Ceiling: at least 12,000 feet AGL
Clouds: few clouds at 4000 feet AGL
Weather: HZ  (haze)

METAR text: OPMT 251330Z 00000KT 5000 HZ FEW040 28/10 Q1012 NOSIG
Conditions at: OPMT (MULTAN , PK) observed 1330 UTC 25 March 2019
Temperature: 28.0°C (82°F)
Dewpoint: 10.0°C (50°F) [RH = 32%]
Pressure (altimeter): 29.88 inches Hg (1012.0 mb)
Winds: calm
Visibility: 3 miles ( 5 km)
Ceiling: at least 12,000 feet AGL
Clouds: few clouds at 4000 feet AGL
Weather: HZ  (haze)

METAR text: OPMT 251256Z 31004KT 6000 HZ FEW040 SCT120 29/10 Q1012 NOSIG
Conditions at: OPMT (MULTAN , PK) observed 1256 UTC 25 March 2019
Temperature: 29.0°C (84°F)
Dewpoint: 10.0°C (50°F) [RH = 31%]
Pressure (altimeter): 29.88 inches Hg (1012.0 mb)
Winds: from the NW (310 degrees) at 5 MPH (4 knots; 2.1 m/s)
Visibility: 4 miles ( 6 km)
Ceiling: at least 12,000 feet AGL
Clouds: few clouds at 4000 feet AGL
scattered clouds at 12000 feet AGL
Weather: HZ  (haze)

METAR text: OPMT 251230Z 31004KT 6000 HZ FEW040 SCT120 30/09 Q1011 NOSIG
Conditions at: OPMT (MULTAN , PK) observed 1230 UTC 25 March 2019
Temperature: 30.0°C (86°F)
Dewpoint: 9.0°C (48°F) [RH = 27%]
Pressure (altimeter): 29.85 inches Hg (1011.0 mb)
Winds: from the NW (310 degrees) at 5 MPH (4 knots; 2.1 m/s)
Visibility: 4 miles ( 6 km)
Ceiling: at least 12,000 feet AGL
Clouds: few clouds at 4000 feet AGL
scattered clouds at 12000 feet AGL
Weather: HZ  (haze)

METAR text: OPMT 251200Z 00000KT 6000 HZ FEW040 30/10 Q1011 NOSIG
Conditions at: OPMT (MULTAN , PK) observed 1200 UTC 25 March 2019
Temperature: 30.0°C (86°F)
Dewpoint: 10.0°C (50°F) [RH = 29%]
Pressure (altimeter): 29.85 inches Hg (1011.0 mb)
Winds: calm
Visibility: 4 miles ( 6 km)
Ceiling: at least 12,000 feet AGL
Clouds: few clouds at 4000 feet AGL
Weather: HZ  (haze)

METAR text: OPMT 251130Z 00000KT 6000 HZ FEW040 30/10 Q1011 NOSIG
Conditions at: OPMT (MULTAN , PK) observed 1130 UTC 25 March 2019
Temperature: 30.0°C (86°F)
Dewpoint: 10.0°C (50°F) [RH = 29%]
Pressure (altimeter): 29.85 inches Hg (1011.0 mb)
Winds: calm
Visibility: 4 miles ( 6 km)
Ceiling: at least 12,000 feet AGL
Clouds: few clouds at 4000 feet AGL
Weather: HZ  (haze)

METAR text: OPMT 251057Z 36004KT 7000 HZ FEW040 30/10 Q1011 NOSIG
Conditions at: OPMT (MULTAN , PK) observed 1057 UTC 25 March 2019
Temperature: 30.0°C (86°F)
Dewpoint: 10.0°C (50°F) [RH = 29%]
Pressure (altimeter): 29.85 inches Hg (1011.0 mb)
Winds: from the N (360 degrees) at 5 MPH (4 knots; 2.1 m/s)
Visibility: 4 miles ( 7 km)
Ceiling: at least 12,000 feet AGL
Clouds: few clouds at 4000 feet AGL
Weather: HZ  (haze)

METAR text: OPMT 251025Z 00000KT 7000 HZ FEW040 30/08 Q1011 NOSIG
Conditions at: OPMT (MULTAN , PK) observed 1025 UTC 25 March 2019
Temperature: 30.0°C (86°F)
Dewpoint: 8.0°C (46°F) [RH = 25%]
Pressure (altimeter): 29.85 inches Hg (1011.0 mb)
Winds: calm
Visibility: 4 miles ( 7 km)
Ceiling: at least 12,000 feet AGL
Clouds: few clouds at 4000 feet AGL
Weather: HZ  (haze)

METAR text: OPMT 250955Z 31004KT 6000 HZ FEW040 31/09 Q1012 NOSIG
Conditions at: OPMT (MULTAN , PK) observed 0955 UTC 25 March 2019
Temperature: 31.0°C (88°F)
Dewpoint: 9.0°C (48°F) [RH = 26%]
Pressure (altimeter): 29.88 inches Hg (1012.0 mb)
Winds: from the NW (310 degrees) at 5 MPH (4 knots; 2.1 m/s)
Visibility: 4 miles ( 6 km)
Ceiling: at least 12,000 feet AGL
Clouds: few clouds at 4000 feet AGL
Weather: HZ  (haze)

METAR text: OPMT 250930Z 00000KT 7000 HZ FEW040 30/10 Q1013 NOSIG
Conditions at: OPMT (MULTAN , PK) observed 0930 UTC 25 March 2019
Temperature: 30.0°C (86°F)
Dewpoint: 10.0°C (50°F) [RH = 29%]
Pressure (altimeter): 29.91 inches Hg (1013.0 mb)
Winds: calm
Visibility: 4 miles ( 7 km)
Ceiling: at least 12,000 feet AGL
Clouds: few clouds at 4000 feet AGL
Weather: HZ  (haze)

METAR text: OPMT 250851Z 31006KT 8000 HZ FEW040 30/10 Q1013 NOSIG
Conditions at: OPMT (MULTAN , PK) observed 0851 UTC 25 March 2019
Temperature: 30.0°C (86°F)
Dewpoint: 10.0°C (50°F) [RH = 29%]
Pressure (altimeter): 29.91 inches Hg (1013.0 mb)
Winds: from the NW (310 degrees) at 7 MPH (6 knots; 3.1 m/s)
Visibility: 5 miles ( 8 km)
Ceiling: at least 12,000 feet AGL
Clouds: few clouds at 4000 feet AGL
Weather: HZ  (haze)

METAR text: OPMT 250830Z 31006KT 8000 HZ FEW040 29/10 Q1013 NOSIG
Conditions at: OPMT (MULTAN , PK) observed 0830 UTC 25 March 2019
Temperature: 29.0°C (84°F)
Dewpoint: 10.0°C (50°F) [RH = 31%]
Pressure (altimeter): 29.91 inches Hg (1013.0 mb)
Winds: from the NW (310 degrees) at 7 MPH (6 knots; 3.1 m/s)
Visibility: 5 miles ( 8 km)
Ceiling: at least 12,000 feet AGL
Clouds: few clouds at 4000 feet AGL
Weather: HZ  (haze)

METAR text: OPMT 250800Z 05008KT 8000 HZ FEW040 29/10 Q1013 NOSIG
Conditions at: OPMT (MULTAN , PK) observed 0800 UTC 25 March 2019
Temperature: 29.0°C (84°F)
Dewpoint: 10.0°C (50°F) [RH = 31%]
Pressure (altimeter): 29.91 inches Hg (1013.0 mb)
Winds: from the NE (50 degrees) at 9 MPH (8 knots; 4.1 m/s)
Visibility: 5 miles ( 8 km)
Ceiling: at least 12,000 feet AGL
Clouds: few clouds at 4000 feet AGL
Weather: HZ  (haze)

METAR text: OPMT 250730Z 36008KT 8000 HZ FEW120 29/08 Q1013 NOSIG
Conditions at: OPMT (MULTAN , PK) observed 0730 UTC 25 March 2019
Temperature: 29.0°C (84°F)
Dewpoint: 8.0°C (46°F) [RH = 27%]
Pressure (altimeter): 29.91 inches Hg (1013.0 mb)
Winds: from the N (360 degrees) at 9 MPH (8 knots; 4.1 m/s)
Visibility: 5 miles ( 8 km)
Ceiling: at least 12,000 feet AGL
Clouds: few clouds at 12000 feet AGL
Weather: HZ  (haze)

METAR text: OPMT 250700Z 31008KT 8000 HZ FEW120 29/08 Q1014 NOSIG
Conditions at: OPMT (MULTAN , PK) observed 0700 UTC 25 March 2019
Temperature: 29.0°C (84°F)
Dewpoint: 8.0°C (46°F) [RH = 27%]
Pressure (altimeter): 29.94 inches Hg (1014.0 mb)
Winds: from the NW (310 degrees) at 9 MPH (8 knots; 4.1 m/s)
Visibility: 5 miles ( 8 km)
Ceiling: at least 12,000 feet AGL
Clouds: few clouds at 12000 feet AGL
Weather: HZ  (haze)

METAR text: OPMT 250630Z 36008KT 7000 HZ FEW120 29/09 Q1014 NOSIG
Conditions at: OPMT (MULTAN , PK) observed 0630 UTC 25 March 2019
Temperature: 29.0°C (84°F)
Dewpoint: 9.0°C (48°F) [RH = 29%]
Pressure (altimeter): 29.94 inches Hg (1014.0 mb)
Winds: from the N (360 degrees) at 9 MPH (8 knots; 4.1 m/s)
Visibility: 4 miles ( 7 km)
Ceiling: at least 12,000 feet AGL
Clouds: few clouds at 12000 feet AGL
Weather: HZ  (haze)

METAR text: OPMT 250600Z 31010KT 7000 HZ FEW120 28/10 Q1014 NOSIG
Conditions at: OPMT (MULTAN , PK) observed 0600 UTC 25 March 2019
Temperature: 28.0°C (82°F)
Dewpoint: 10.0°C (50°F) [RH = 32%]
Pressure (altimeter): 29.94 inches Hg (1014.0 mb)
Winds: from the NW (310 degrees) at 12 MPH (10 knots; 5.1 m/s)
Visibility: 4 miles ( 7 km)
Ceiling: at least 12,000 feet AGL
Clouds: few clouds at 12000 feet AGL
Weather: HZ  (haze)

METAR text: OPMT 250530Z 36008KT 7000 HZ SCT200 26/11 Q1015 NOSIG
Conditions at: OPMT (MULTAN , PK) observed 0530 UTC 25 March 2019
Temperature: 26.0°C (79°F)
Dewpoint: 11.0°C (52°F) [RH = 39%]
Pressure (altimeter): 29.97 inches Hg (1015.0 mb)
Winds: from the N (360 degrees) at 9 MPH (8 knots; 4.1 m/s)
Visibility: 4 miles ( 7 km)
Ceiling: at least 12,000 feet AGL
Clouds: scattered clouds at 20000 feet AGL
Weather: HZ  (haze)

METAR text: OPMT 250500Z 05006KT 6000 HZ SCT200 25/12 Q1014 NOSIG
Conditions at: OPMT (MULTAN , PK) observed 0500 UTC 25 March 2019
Temperature: 25.0°C (77°F)
Dewpoint: 12.0°C (54°F) [RH = 44%]
Pressure (altimeter): 29.94 inches Hg (1014.0 mb)
Winds: from the NE (50 degrees) at 7 MPH (6 knots; 3.1 m/s)
Visibility: 4 miles ( 6 km)
Ceiling: at least 12,000 feet AGL
Clouds: scattered clouds at 20000 feet AGL
Weather: HZ  (haze)

METAR text: OPMT 250430Z 36010KT 6000 HZ FEW040 SCT200 24/12 Q1014 NOSIG
Conditions at: OPMT (MULTAN , PK) observed 0430 UTC 25 March 2019
Temperature: 24.0°C (75°F)
Dewpoint: 12.0°C (54°F) [RH = 47%]
Pressure (altimeter): 29.94 inches Hg (1014.0 mb)
Winds: from the N (360 degrees) at 12 MPH (10 knots; 5.1 m/s)
Visibility: 4 miles ( 6 km)
Ceiling: at least 12,000 feet AGL
Clouds: few clouds at 4000 feet AGL
scattered clouds at 20000 feet AGL
Weather: HZ  (haze)

METAR text: OPMT 250400Z 05006KT 5000 FU FEW120 23/13 Q1014 NOSIG
Conditions at: OPMT (MULTAN , PK) observed 0400 UTC 25 March 2019
Temperature: 23.0°C (73°F)
Dewpoint: 13.0°C (55°F) [RH = 53%]
Pressure (altimeter): 29.94 inches Hg (1014.0 mb)
Winds: from the NE (50 degrees) at 7 MPH (6 knots; 3.1 m/s)
Visibility: 3 miles ( 5 km)
Ceiling: at least 12,000 feet AGL
Clouds: few clouds at 12000 feet AGL
Weather: FU  (smoke)

METAR text: OPMT 250330Z 36006KT 5000 FU FEW040 SCT200 22/13 Q1014 NOSIG
Conditions at: OPMT (MULTAN , PK) observed 0330 UTC 25 March 2019
Temperature: 22.0°C (72°F)
Dewpoint: 13.0°C (55°F) [RH = 57%]
Pressure (altimeter): 29.94 inches Hg (1014.0 mb)
Winds: from the N (360 degrees) at 7 MPH (6 knots; 3.1 m/s)
Visibility: 3 miles ( 5 km)
Ceiling: at least 12,000 feet AGL
Clouds: few clouds at 4000 feet AGL
scattered clouds at 20000 feet AGL
Weather: FU  (smoke)

METAR text: OPMT 250300Z 00000KT 4000 FU SCT040 SCT120 20/15 Q1013 NOSIG
Conditions at: OPMT (MULTAN , PK) observed 0300 UTC 25 March 2019
Temperature: 20.0°C (68°F)
Dewpoint: 15.0°C (59°F) [RH = 73%]
Pressure (altimeter): 29.91 inches Hg (1013.0 mb)
Winds: calm
Visibility: 2.49 miles (4.01 km)
Ceiling: at least 12,000 feet AGL
Clouds: scattered clouds at 4000 feet AGL
scattered clouds at 12000 feet AGL
Weather: FU  (smoke)

METAR text: OPMT 250230Z 00000KT 4000 FU SCT040 SCT120 19/15 Q1013 NOSIG
Conditions at: OPMT (MULTAN , PK) observed 0230 UTC 25 March 2019
Temperature: 19.0°C (66°F)
Dewpoint: 15.0°C (59°F) [RH = 78%]
Pressure (altimeter): 29.91 inches Hg (1013.0 mb)
Winds: calm
Visibility: 2.49 miles (4.01 km)
Ceiling: at least 12,000 feet AGL
Clouds: scattered clouds at 4000 feet AGL
scattered clouds at 12000 feet AGL
Weather: FU  (smoke)

METAR text: OPMT 250200Z 00000KT 4000 FU SCT040 BKN120 19/15 Q1013 NOSIG
Conditions at: OPMT (MULTAN , PK) observed 0200 UTC 25 March 2019
Temperature: 19.0°C (66°F)
Dewpoint: 15.0°C (59°F) [RH = 78%]
Pressure (altimeter): 29.91 inches Hg (1013.0 mb)
Winds: calm
Visibility: 2.49 miles (4.01 km)
Ceiling: 12000 feet AGL
Clouds: scattered clouds at 4000 feet AGL
broken clouds at 12000 feet AGL
Weather: FU  (smoke)

METAR text: OPMT 250130Z 00000KT 4000 FU SCT040 BKN120 19/15 Q1013 NOSIG
Conditions at: OPMT (MULTAN , PK) observed 0130 UTC 25 March 2019
Temperature: 19.0°C (66°F)
Dewpoint: 15.0°C (59°F) [RH = 78%]
Pressure (altimeter): 29.91 inches Hg (1013.0 mb)
Winds: calm
Visibility: 2.49 miles (4.01 km)
Ceiling: 12000 feet AGL
Clouds: scattered clouds at 4000 feet AGL
broken clouds at 12000 feet AGL
Weather: FU  (smoke)

METAR text: OPMT 250100Z 00000KT 4000 FU SCT040 BKN120 19/15 Q1012 NOSIG
Conditions at: OPMT (MULTAN , PK) observed 0100 UTC 25 March 2019
Temperature: 19.0°C (66°F)
Dewpoint: 15.0°C (59°F) [RH = 78%]
Pressure (altimeter): 29.88 inches Hg (1012.0 mb)
Winds: calm
Visibility: 2.49 miles (4.01 km)
Ceiling: 12000 feet AGL
Clouds: scattered clouds at 4000 feet AGL
broken clouds at 12000 feet AGL
Weather: FU  (smoke)

METAR text: OPMT 250030Z 00000KT 4000 FU SCT040 BKN120 19/15 Q1012 NOSIG
Conditions at: OPMT (MULTAN , PK) observed 0030 UTC 25 March 2019
Temperature: 19.0°C (66°F)
Dewpoint: 15.0°C (59°F) [RH = 78%]
Pressure (altimeter): 29.88 inches Hg (1012.0 mb)
Winds: calm
Visibility: 2.49 miles (4.01 km)
Ceiling: 12000 feet AGL
Clouds: scattered clouds at 4000 feet AGL
broken clouds at 12000 feet AGL
Weather: FU  (smoke)

METAR text: OPMT 250000Z 27004KT 4000 SCT040 BKN120 19/15 Q1012 NOSIG
Conditions at: OPMT (MULTAN , PK) observed 0000 UTC 25 March 2019
Temperature: 19.0°C (66°F)
Dewpoint: 15.0°C (59°F) [RH = 78%]
Pressure (altimeter): 29.88 inches Hg (1012.0 mb)
Winds: from the W (270 degrees) at 5 MPH (4 knots; 2.1 m/s)
Visibility: 2.49 miles (4.01 km)
Ceiling: 12000 feet AGL
Clouds: scattered clouds at 4000 feet AGL
broken clouds at 12000 feet AGL
Weather: no significant weather observed at this time

METAR text: OPMT 242330Z 27008KT 4000 VCTS FEW030CB SCT040 BKN120 19/15 Q1012 TEMPO 36030KT 2000 TSRA FEW030CB
Conditions at: OPMT (MULTAN , PK) observed 2330 UTC 24 March 2019
Temperature: 19.0°C (66°F)
Dewpoint: 15.0°C (59°F) [RH = 78%]
Pressure (altimeter): 29.88 inches Hg (1012.0 mb)
Winds: from the W (270 degrees) at 9 MPH (8 knots; 4.1 m/s)
Visibility: 2.49 miles (4.01 km)
Ceiling: 12000 feet AGL
Clouds: few clouds at 3000 feet AGL
scattered clouds at 4000 feet AGL
broken clouds at 12000 feet AGL
Weather: VCTS  (thunderstorm in vicinity)

METAR text: OPMT 242300Z 27008KT 4000 FU SCT040 BKN120 19/15 Q1012 TEMPO 36020KT 2000 TSRA FEW030CB
Conditions at: OPMT (MULTAN , PK) observed 2300 UTC 24 March 2019
Temperature: 19.0°C (66°F)
Dewpoint: 15.0°C (59°F) [RH = 78%]
Pressure (altimeter): 29.88 inches Hg (1012.0 mb)
Winds: from the W (270 degrees) at 9 MPH (8 knots; 4.1 m/s)
Visibility: 2.49 miles (4.01 km)
Ceiling: 12000 feet AGL
Clouds: scattered clouds at 4000 feet AGL
broken clouds at 12000 feet AGL
Weather: FU  (smoke)

METAR text: OPMT 242230Z 27006KT 4000 FU SCT040 BKN120 18/15 Q1012 TEMPO 36020KT 2000 TSRA FEW030CB
Conditions at: OPMT (MULTAN , PK) observed 2230 UTC 24 March 2019
Temperature: 18.0°C (64°F)
Dewpoint: 15.0°C (59°F) [RH = 83%]
Pressure (altimeter): 29.88 inches Hg (1012.0 mb)
Winds: from the W (270 degrees) at 7 MPH (6 knots; 3.1 m/s)
Visibility: 2.49 miles (4.01 km)
Ceiling: 12000 feet AGL
Clouds: scattered clouds at 4000 feet AGL
broken clouds at 12000 feet AGL
Weather: FU  (smoke)

METAR text: OPMT 242200Z 27010KT 4000 FU SCT040 BKN120 18/15 Q1012 TEMPO 36020KT 2000 TSRA FEW030CB
Conditions at: OPMT (MULTAN , PK) observed 2200 UTC 24 March 2019
Temperature: 18.0°C (64°F)
Dewpoint: 15.0°C (59°F) [RH = 83%]
Pressure (altimeter): 29.88 inches Hg (1012.0 mb)
Winds: from the W (270 degrees) at 12 MPH (10 knots; 5.1 m/s)
Visibility: 2.49 miles (4.01 km)
Ceiling: 12000 feet AGL
Clouds: scattered clouds at 4000 feet AGL
broken clouds at 12000 feet AGL
Weather: FU  (smoke)

METAR text: OPMT 242130Z 27010KT 4000 FU SCT040 BKN100 19/15 Q1012 TEMPO 36020KT 2000 TSRA FEW030CB
Conditions at: OPMT (MULTAN , PK) observed 2130 UTC 24 March 2019
Temperature: 19.0°C (66°F)
Dewpoint: 15.0°C (59°F) [RH = 78%]
Pressure (altimeter): 29.88 inches Hg (1012.0 mb)
Winds: from the W (270 degrees) at 12 MPH (10 knots; 5.1 m/s)
Visibility: 2.49 miles (4.01 km)
Ceiling: 10000 feet AGL
Clouds: scattered clouds at 4000 feet AGL
broken clouds at 10000 feet AGL
Weather: FU  (smoke)

METAR text: OPMT 242100Z 00000KT 4000 FU SCT040 19/15 Q1012 TEMPO 36020KT 2000 DSRA FEW030CB
Conditions at: OPMT (MULTAN , PK) observed 2100 UTC 24 March 2019
Temperature: 19.0°C (66°F)
Dewpoint: 15.0°C (59°F) [RH = 78%]
Pressure (altimeter): 29.88 inches Hg (1012.0 mb)
Winds: calm
Visibility: 2.49 miles (4.01 km)
Ceiling: at least 12,000 feet AGL
Clouds: scattered clouds at 4000 feet AGL
Weather: FU  (smoke)

METAR text: OPMT 242000Z 00000KT 4000 FU SCT040 20/14 Q1012 TEMPO 36020KT 2000 DSRA FEW030CB
Conditions at: OPMT (MULTAN , PK) observed 2000 UTC 24 March 2019
Temperature: 20.0°C (68°F)
Dewpoint: 14.0°C (57°F) [RH = 68%]
Pressure (altimeter): 29.88 inches Hg (1012.0 mb)
Winds: calm
Visibility: 2.49 miles (4.01 km)
Ceiling: at least 12,000 feet AGL
Clouds: scattered clouds at 4000 feet AGL
Weather: FU  (smoke)

METAR text: OPMT 241900Z 00000KT 4000 FU BKN120 20/14 Q1013 NOSIG
Conditions at: OPMT (MULTAN , PK) observed 1900 UTC 24 March 2019
Temperature: 20.0°C (68°F)
Dewpoint: 14.0°C (57°F) [RH = 68%]
Pressure (altimeter): 29.91 inches Hg (1013.0 mb)
Winds: calm
Visibility: 2.49 miles (4.01 km)
Ceiling: 12000 feet AGL
Clouds: broken clouds at 12000 feet AGL
Weather: FU  (smoke)

METAR text: OPMT 241830Z 00000KT 4000 FU BKN120 20/14 Q1013 NOSIG
Conditions at: OPMT (MULTAN , PK) observed 1830 UTC 24 March 2019
Temperature: 20.0°C (68°F)
Dewpoint: 14.0°C (57°F) [RH = 68%]
Pressure (altimeter): 29.91 inches Hg (1013.0 mb)
Winds: calm
Visibility: 2.49 miles (4.01 km)
Ceiling: 12000 feet AGL
Clouds: broken clouds at 12000 feet AGL
Weather: FU  (smoke)

METAR text: OPMT 241800Z 00000KT 4000 FU BKN120 20/14 Q1013 NOSIG
Conditions at: OPMT (MULTAN , PK) observed 1800 UTC 24 March 2019
Temperature: 20.0°C (68°F)
Dewpoint: 14.0°C (57°F) [RH = 68%]
Pressure (altimeter): 29.91 inches Hg (1013.0 mb)
Winds: calm
Visibility: 2.49 miles (4.01 km)
Ceiling: 12000 feet AGL
Clouds: broken clouds at 12000 feet AGL
Weather: FU  (smoke)

METAR text: OPMT 241730Z 00000KT 4000 FU BKN120 20/13 Q1013 NOSIG
Conditions at: OPMT (MULTAN , PK) observed 1730 UTC 24 March 2019
Temperature: 20.0°C (68°F)
Dewpoint: 13.0°C (55°F) [RH = 64%]
Pressure (altimeter): 29.91 inches Hg (1013.0 mb)
Winds: calm
Visibility: 2.49 miles (4.01 km)
Ceiling: 12000 feet AGL
Clouds: broken clouds at 12000 feet AGL
Weather: FU  (smoke)

METAR text: OPMT 241700Z 00000KT 4000 FU BKN120 21/14 Q1013 NOSIG
Conditions at: OPMT (MULTAN , PK) observed 1700 UTC 24 March 2019
Temperature: 21.0°C (70°F)
Dewpoint: 14.0°C (57°F) [RH = 64%]
Pressure (altimeter): 29.91 inches Hg (1013.0 mb)
Winds: calm
Visibility: 2.49 miles (4.01 km)
Ceiling: 12000 feet AGL
Clouds: broken clouds at 12000 feet AGL
Weather: FU  (smoke)

METAR text: OPMT 241630Z 00000KT 4000 FU SCT120 22/14 Q1013 NOSIG
Conditions at: OPMT (MULTAN , PK) observed 1630 UTC 24 March 2019
Temperature: 22.0°C (72°F)
Dewpoint: 14.0°C (57°F) [RH = 60%]
Pressure (altimeter): 29.91 inches Hg (1013.0 mb)
Winds: calm
Visibility: 2.49 miles (4.01 km)
Ceiling: at least 12,000 feet AGL
Clouds: scattered clouds at 12000 feet AGL
Weather: FU  (smoke)

METAR text: OPMT 241600Z 00000KT 4000 FU SCT120 22/14 Q1012 NOSIG
Conditions at: OPMT (MULTAN , PK) observed 1600 UTC 24 March 2019
Temperature: 22.0°C (72°F)
Dewpoint: 14.0°C (57°F) [RH = 60%]
Pressure (altimeter): 29.88 inches Hg (1012.0 mb)
Winds: calm
Visibility: 2.49 miles (4.01 km)
Ceiling: at least 12,000 feet AGL
Clouds: scattered clouds at 12000 feet AGL
Weather: FU  (smoke)

METAR text: OPMT 241530Z 00000KT 5000 FU FEW120 23/15 Q1012 NOSIG
Conditions at: OPMT (MULTAN , PK) observed 1530 UTC 24 March 2019
Temperature: 23.0°C (73°F)
Dewpoint: 15.0°C (59°F) [RH = 61%]
Pressure (altimeter): 29.88 inches Hg (1012.0 mb)
Winds: calm
Visibility: 3 miles ( 5 km)
Ceiling: at least 12,000 feet AGL
Clouds: few clouds at 12000 feet AGL
Weather: FU  (smoke)

METAR text: OPMT 241500Z 00000KT 5000 FU FEW120 23/15 Q1012 NOSIG
Conditions at: OPMT (MULTAN , PK) observed 1500 UTC 24 March 2019
Temperature: 23.0°C (73°F)
Dewpoint: 15.0°C (59°F) [RH = 61%]
Pressure (altimeter): 29.88 inches Hg (1012.0 mb)
Winds: calm
Visibility: 3 miles ( 5 km)
Ceiling: at least 12,000 feet AGL
Clouds: few clouds at 12000 feet AGL
Weather: FU  (smoke)

METAR text: OPMT 241430Z 00000KT 5000 FU FEW120 24/14 Q1012 NOSIG
Conditions at: OPMT (MULTAN , PK) observed 1430 UTC 24 March 2019
Temperature: 24.0°C (75°F)
Dewpoint: 14.0°C (57°F) [RH = 54%]
Pressure (altimeter): 29.88 inches Hg (1012.0 mb)
Winds: calm
Visibility: 3 miles ( 5 km)
Ceiling: at least 12,000 feet AGL
Clouds: few clouds at 12000 feet AGL
Weather: FU  (smoke)

METAR text: OPMT 241400Z 09004KT 5000 FU FEW040 SCT100 24/14 Q1012 NOSIG
Conditions at: OPMT (MULTAN , PK) observed 1400 UTC 24 March 2019
Temperature: 24.0°C (75°F)
Dewpoint: 14.0°C (57°F) [RH = 54%]
Pressure (altimeter): 29.88 inches Hg (1012.0 mb)
Winds: from the E (90 degrees) at 5 MPH (4 knots; 2.1 m/s)
Visibility: 3 miles ( 5 km)
Ceiling: at least 12,000 feet AGL
Clouds: few clouds at 4000 feet AGL
scattered clouds at 10000 feet AGL
Weather: FU  (smoke)

METAR text: OPMT 241330Z 09004KT 5000 FU FEW040 SCT120 25/14 Q1012 NOSIG
Conditions at: OPMT (MULTAN , PK) observed 1330 UTC 24 March 2019
Temperature: 25.0°C (77°F)
Dewpoint: 14.0°C (57°F) [RH = 50%]
Pressure (altimeter): 29.88 inches Hg (1012.0 mb)
Winds: from the E (90 degrees) at 5 MPH (4 knots; 2.1 m/s)
Visibility: 3 miles ( 5 km)
Ceiling: at least 12,000 feet AGL
Clouds: few clouds at 4000 feet AGL
scattered clouds at 12000 feet AGL
Weather: FU  (smoke)

METAR text: OPMT 241300Z 09004KT 5000 HZ SCT120 26/12 Q1012 NOSIG
Conditions at: OPMT (MULTAN , PK) observed 1300 UTC 24 March 2019
Temperature: 26.0°C (79°F)
Dewpoint: 12.0°C (54°F) [RH = 42%]
Pressure (altimeter): 29.88 inches Hg (1012.0 mb)
Winds: from the E (90 degrees) at 5 MPH (4 knots; 2.1 m/s)
Visibility: 3 miles ( 5 km)
Ceiling: at least 12,000 feet AGL
Clouds: scattered clouds at 12000 feet AGL
Weather: HZ  (haze)

METAR text: OPMT 241230Z 09004KT 6000 HZ FEW120 26/12 Q1012 NOSIG
Conditions at: OPMT (MULTAN , PK) observed 1230 UTC 24 March 2019
Temperature: 26.0°C (79°F)
Dewpoint: 12.0°C (54°F) [RH = 42%]
Pressure (altimeter): 29.88 inches Hg (1012.0 mb)
Winds: from the E (90 degrees) at 5 MPH (4 knots; 2.1 m/s)
Visibility: 4 miles ( 6 km)
Ceiling: at least 12,000 feet AGL
Clouds: few clouds at 12000 feet AGL
Weather: HZ  (haze)

METAR text: OPMT 241200Z 09004KT 6000 HZ FEW120 26/12 Q1012 NOSIG
Conditions at: OPMT (MULTAN , PK) observed 1200 UTC 24 March 2019
Temperature: 26.0°C (79°F)
Dewpoint: 12.0°C (54°F) [RH = 42%]
Pressure (altimeter): 29.88 inches Hg (1012.0 mb)
Winds: from the E (90 degrees) at 5 MPH (4 knots; 2.1 m/s)
Visibility: 4 miles ( 6 km)
Ceiling: at least 12,000 feet AGL
Clouds: few clouds at 12000 feet AGL
Weather: HZ  (haze)

METAR text: OPMT 241130Z 00000KT 6000 HZ FEW120 26/12 Q1012 NOSIG
Conditions at: OPMT (MULTAN , PK) observed 1130 UTC 24 March 2019
Temperature: 26.0°C (79°F)
Dewpoint: 12.0°C (54°F) [RH = 42%]
Pressure (altimeter): 29.88 inches Hg (1012.0 mb)
Winds: calm
Visibility: 4 miles ( 6 km)
Ceiling: at least 12,000 feet AGL
Clouds: few clouds at 12000 feet AGL
Weather: HZ  (haze)

METAR text: OPMT 241055Z 05004KT 6000 HZ FEW120 26/12 Q1012 NOSIG
Conditions at: OPMT (MULTAN , PK) observed 1055 UTC 24 March 2019
Temperature: 26.0°C (79°F)
Dewpoint: 12.0°C (54°F) [RH = 42%]
Pressure (altimeter): 29.88 inches Hg (1012.0 mb)
Winds: from the NE (50 degrees) at 5 MPH (4 knots; 2.1 m/s)
Visibility: 4 miles ( 6 km)
Ceiling: at least 12,000 feet AGL
Clouds: few clouds at 12000 feet AGL
Weather: HZ  (haze)

METAR text: OPMT 241030Z 05004KT 6000 HZ FEW120 26/12 Q1012 NOSIG
Conditions at: OPMT (MULTAN , PK) observed 1030 UTC 24 March 2019
Temperature: 26.0°C (79°F)
Dewpoint: 12.0°C (54°F) [RH = 42%]
Pressure (altimeter): 29.88 inches Hg (1012.0 mb)
Winds: from the NE (50 degrees) at 5 MPH (4 knots; 2.1 m/s)
Visibility: 4 miles ( 6 km)
Ceiling: at least 12,000 feet AGL
Clouds: few clouds at 12000 feet AGL
Weather: HZ  (haze)

METAR text: OPMT 240952Z 05006KT 5000 HZ FEW120 SCT200 26/12 Q1013 NOSIG
Conditions at: OPMT (MULTAN , PK) observed 0952 UTC 24 March 2019
Temperature: 26.0°C (79°F)
Dewpoint: 12.0°C (54°F) [RH = 42%]
Pressure (altimeter): 29.91 inches Hg (1013.0 mb)
Winds: from the NE (50 degrees) at 7 MPH (6 knots; 3.1 m/s)
Visibility: 3 miles ( 5 km)
Ceiling: at least 12,000 feet AGL
Clouds: few clouds at 12000 feet AGL
scattered clouds at 20000 feet AGL
Weather: HZ  (haze)

METAR text: OPMT 240930Z 05006KT 5000 HZ FEW120 SCT200 25/12 Q1013 NOSIG
Conditions at: OPMT (MULTAN , PK) observed 0930 UTC 24 March 2019
Temperature: 25.0°C (77°F)
Dewpoint: 12.0°C (54°F) [RH = 44%]
Pressure (altimeter): 29.91 inches Hg (1013.0 mb)
Winds: from the NE (50 degrees) at 7 MPH (6 knots; 3.1 m/s)
Visibility: 3 miles ( 5 km)
Ceiling: at least 12,000 feet AGL
Clouds: few clouds at 12000 feet AGL
scattered clouds at 20000 feet AGL
Weather: HZ  (haze)

METAR text: OPMT 240900Z 36006KT 5000 FU SCT120 24/15 Q1014 NOSIG
Conditions at: OPMT (MULTAN , PK) observed 0900 UTC 24 March 2019
Temperature: 24.0°C (75°F)
Dewpoint: 15.0°C (59°F) [RH = 57%]
Pressure (altimeter): 29.94 inches Hg (1014.0 mb)
Winds: from the N (360 degrees) at 7 MPH (6 knots; 3.1 m/s)
Visibility: 3 miles ( 5 km)
Ceiling: at least 12,000 feet AGL
Clouds: scattered clouds at 12000 feet AGL
Weather: FU  (smoke)

METAR text: OPMT 240830Z 36004KT 5000 FU SCT12 22/16 Q1014 NOSIG
Conditions at: OPMT (MULTAN , PK) observed 0830 UTC 24 March 2019
Temperature: 22.0°C (72°F)
Dewpoint: 16.0°C (61°F) [RH = 69%]
Pressure (altimeter): 29.94 inches Hg (1014.0 mb)
Winds: from the N (360 degrees) at 5 MPH (4 knots; 2.1 m/s)
Visibility: 3 miles ( 5 km)
Ceiling: unknown
Clouds: missing
Weather: FU  (smoke)

METAR text: OPMT 240752Z 00000KT 5000 FU SCT040 BKN100 22/17 Q1015 NOSIG
Conditions at: OPMT (MULTAN , PK) observed 0752 UTC 24 March 2019
Temperature: 22.0°C (72°F)
Dewpoint: 17.0°C (63°F) [RH = 73%]
Pressure (altimeter): 29.97 inches Hg (1015.0 mb)
Winds: calm
Visibility: 3 miles ( 5 km)
Ceiling: 10000 feet AGL
Clouds: scattered clouds at 4000 feet AGL
broken clouds at 10000 feet AGL
Weather: FU  (smoke)

METAR text: OPMT 240730Z 00000KT 5000 FU SCT040 OVC100 21/16 Q1015 NOSIG
Conditions at: OPMT (MULTAN , PK) observed 0730 UTC 24 March 2019
Temperature: 21.0°C (70°F)
Dewpoint: 16.0°C (61°F) [RH = 73%]
Pressure (altimeter): 29.97 inches Hg (1015.0 mb)
Winds: calm
Visibility: 3 miles ( 5 km)
Ceiling: 10000 feet AGL
Clouds: scattered clouds at 4000 feet AGL
overcast cloud deck at 10000 feet AGL
Weather: FU  (smoke)

METAR text: OPMT 240652Z 00000KT 5000 FU SCT040 OVC100 21/16 Q1016 NOSIG
Conditions at: OPMT (MULTAN , PK) observed 0652 UTC 24 March 2019
Temperature: 21.0°C (70°F)
Dewpoint: 16.0°C (61°F) [RH = 73%]
Pressure (altimeter): 30.00 inches Hg (1016.0 mb)
Winds: calm
Visibility: 3 miles ( 5 km)
Ceiling: 10000 feet AGL
Clouds: scattered clouds at 4000 feet AGL
overcast cloud deck at 10000 feet AGL
Weather: FU  (smoke)

METAR text: OPMT 240630Z 00000KT 5000 FU SCT040 OVC100 20/16 Q1016 NOSIG
Conditions at: OPMT (MULTAN , PK) observed 0630 UTC 24 March 2019
Temperature: 20.0°C (68°F)
Dewpoint: 16.0°C (61°F) [RH = 78%]
Pressure (altimeter): 30.00 inches Hg (1016.0 mb)
Winds: calm
Visibility: 3 miles ( 5 km)
Ceiling: 10000 feet AGL
Clouds: scattered clouds at 4000 feet AGL
overcast cloud deck at 10000 feet AGL
Weather: FU  (smoke)

METAR text: OPMT 240600Z 00000KT 5000 FU SCT040 BKN100 19/15 Q1017 NOSIG
Conditions at: OPMT (MULTAN , PK) observed 0600 UTC 24 March 2019
Temperature: 19.0°C (66°F)
Dewpoint: 15.0°C (59°F) [RH = 78%]
Pressure (altimeter): 30.03 inches Hg (1017.0 mb)
Winds: calm
Visibility: 3 miles ( 5 km)
Ceiling: 10000 feet AGL
Clouds: scattered clouds at 4000 feet AGL
broken clouds at 10000 feet AGL
Weather: FU  (smoke)

Forecast for: OPMT (MULTAN , PK)
Text: TAF OPMT 251605Z 2518/2612 31005KT 5000 FU FEW120 TN18/2601Z TX31/2610Z
Forecast period: 1800 UTC 25 March 2019 to 1200 UTC 26 March 2019
Forecast type: FROM: standard forecast or significant change
Winds: from the NW (310 degrees) at 6 MPH (5 knots; 2.6 m/s)
Visibility: 3 miles (5 km)
Ceiling: at least 12,000 feet AGL
Clouds: few clouds at 12000 feet AGL
Weather: FU  (smoke)